Ana Sayfa
METAR-TAF:

METAR-TAF

Havaalanları :

Berlin, New Hampshire, Amerika Birleşik Devletleri

Enlem: 44-34-34N, Boylam: 071-10-43W, yükseklik: 353 m

Güncel hava durumu gözlemi

Rapor saat 12:52 UTC de 8 dakika önce yapıldı.
Rüzgar değişken yönden 4 kt
Sıcaklık 17°C
Nem 63%
Basınç 1015 hPa
Görüş mesafesi: 16.1 km
4000 ft yükseklikte az bulutlu

METAR: KBML 171252Z AUTO VRB04KT 10SM FEW040 17/10 A2997 RMK AO2 SLP149 T01720100

Saat: 09:00 (13:00 UTC)


TAF: eksik

4.000'den fazla havaalanı için hava durumu gözlemleri ve tahminleri (METAR ve TAF raporları).

Kullanılabilir istasyonlar harita üzerinde sarı ve kırmızı noktalarla gösterilir.

İstasyonun adını görmek için fareyi noktanın üzerinde gezdirin.

Sonrasında hava gözlem ve tahminlerini görmek için tıklayın.

Haritayı değiştirmek için: yaklaştırmak için siyah artı işaretli yeşil düğmeye ve uzaklaştırmak için de eksi işaretli düğmeye hızla tıklayın; bitişik haritalar için yeşil okları kullanın.


METAR-TAF: